Time;durP1;ratioP1;P1;durP2;ratioP2;P2;SDS_P1;SDS_P2;PMS_P1;PMS_P2;Temp;Humidity;BMP_temperature;BMP_pressure;BME280_temperature;BME280_humidity;BME280_pressure;Samples;Min_cycle;Max_cycle;Signal;HPM_P1;HPM_P2
2021/03/22 00:00:35;;;;;;;32.40;18.37;;;76.80;1766.40;;;;;;5096454;28;20028;-71
2021/03/22 00:03:01;;;;;;;28.27;17.00;;;52.10;1792.00;;;;;;5096545;28;20081;-70
2021/03/22 00:05:28;;;;;;;26.30;16.23;;;52.10;1792.00;;;;;;5096366;28;20024;-66
2021/03/22 00:07:54;;;;;;;25.87;16.33;;;52.10;1792.00;;;;;;5096320;28;20019;-71
2021/03/22 00:10:23;;;;;;;24.90;16.00;;;52.10;1792.00;;;;;;5095710;28;20387;-64
2021/03/22 00:12:49;;;;;;;25.43;15.97;;;52.00;1817.60;;;;;;5095979;28;20103;-73
2021/03/22 00:15:16;;;;;;;25.30;16.07;;;52.00;1792.00;;;;;;5096084;28;20078;-71
2021/03/22 00:17:42;;;;;;;27.27;15.47;;;51.90;1817.60;;;;;;5096095;28;20464;-73
2021/03/22 00:20:10;;;;;;;24.33;15.43;;;51.90;1817.60;;;;;;5083839;28;20108;-65
2021/03/22 00:22:36;;;;;;;26.33;15.20;;;52.00;1817.60;;;;;;5093467;28;20056;-64
2021/03/22 00:25:03;;;;;;;23.83;14.97;;;51.90;1817.60;;;;;;5095751;28;20024;-64
2021/03/22 00:27:29;;;;;;;24.57;14.33;;;51.90;1817.60;;;;;;5095717;28;20090;-65
2021/03/22 00:29:55;;;;;;;23.90;14.70;;;51.90;1817.60;;;;;;5095756;28;20476;-73
2021/03/22 00:32:21;;;;;;;22.80;14.50;;;51.80;1843.20;;;;;;5095644;28;20537;-72
2021/03/22 00:34:47;;;;;;;24.67;14.87;;;51.80;1843.20;;;;;;5095927;28;20024;-64
2021/03/22 00:37:13;;;;;;;24.70;13.73;;;51.80;1843.20;;;;;;5095868;28;20377;-64
2021/03/22 00:39:39;;;;;;;24.93;15.03;;;51.80;1843.20;;;;;;5095736;28;20043;-64
2021/03/22 00:42:06;;;;;;;24.10;15.23;;;51.70;1868.80;;;;;;5095562;28;20028;-72
2021/03/22 00:44:32;;;;;;;26.33;16.23;;;51.70;1868.80;;;;;;5095762;28;20054;-71
2021/03/22 00:46:58;;;;;;;26.03;15.50;;;51.70;1894.40;;;;;;5095811;28;20034;-69
2021/03/22 00:49:24;;;;;;;24.50;14.87;;;51.70;1894.40;;;;;;5095534;28;20447;-69
2021/03/22 00:51:50;;;;;;;22.10;14.23;;;51.70;1920.00;;;;;;5095496;28;20042;-72
2021/03/22 00:54:16;;;;;;;19.57;12.80;;;51.80;1945.60;;;;;;5095644;28;20020;-73
2021/03/22 00:56:42;;;;;;;19.47;12.50;;;51.80;1945.60;;;;;;5094001;28;20012;-69
2021/03/22 00:59:07;;;;;;;18.63;12.60;;;51.70;1945.60;;;;;;5094405;28;20028;-71
2021/03/22 01:01:33;;;;;;;19.27;12.57;;;51.80;1971.20;;;;;;5093821;28;20024;-71
2021/03/22 01:03:59;;;;;;;20.03;13.10;;;51.80;1945.60;;;;;;5094257;28;20507;-71
2021/03/22 01:06:25;;;;;;;22.50;13.80;;;51.80;1971.20;;;;;;5093627;28;20024;-69
2021/03/22 01:08:51;;;;;;;20.93;13.30;;;51.70;1971.20;;;;;;5093768;28;20028;-72
2021/03/22 01:11:20;;;;;;;20.27;13.07;;;51.80;1971.20;;;;;;5094353;28;20036;-71
2021/03/22 01:13:50;;;;;;;23.67;13.73;;;51.70;1971.20;;;;;;5094775;28;20046;-66
2021/03/22 01:16:21;;;;;;;19.67;13.63;;;51.80;1971.20;;;;;;5076687;28;20366;-64
2021/03/22 01:18:50;;;;;;;21.40;13.63;;;51.80;1996.80;;;;;;5076611;28;20430;-64
2021/03/22 01:21:32;;;;;;;24.70;14.30;;;51.80;1996.80;;;;;;5094615;28;20043;-71
2021/03/22 01:23:59;;;;;;;23.90;13.93;;;51.80;1996.80;;;;;;5094979;28;20457;-64
2021/03/22 01:26:30;;;;;;;25.10;14.50;;;51.80;2022.40;;;;;;5094541;28;20097;-70
2021/03/22 01:28:57;;;;;;;25.67;15.13;;;51.70;2048.00;;;;;;5082500;28;20029;-71
2021/03/22 01:31:24;;;;;;;24.67;15.37;;;51.80;2022.40;;;;;;5088155;28;20032;-63
2021/03/22 01:33:51;;;;;;;26.97;15.90;;;51.80;2022.40;;;;;;5094575;28;20020;-64
2021/03/22 01:36:24;;;;;;;26.80;16.57;;;51.80;2022.40;;;;;;5076332;28;20100;-64
2021/03/22 01:38:52;;;;;;;29.60;16.02;;;51.90;2022.40;;;;;;5094660;28;20035;-64
2021/03/22 01:41:27;;;;;;;26.27;16.00;;;51.90;2022.40;;;;;;5094571;28;20048;-63
2021/03/22 01:44:28;;;;;;;28.27;15.80;;;52.00;2022.40;;;;;;5094670;28;20028;-71
2021/03/22 01:47:04;;;;;;;24.93;14.60;;;52.10;1996.80;;;;;;5094637;28;20376;-69
2021/03/22 01:49:42;;;;;;;22.70;14.23;;;52.00;1996.80;;;;;;5094525;28;20385;-71
2021/03/22 01:52:10;;;;;;;21.53;13.60;;;52.00;1996.80;;;;;;5094174;28;20118;-67
2021/03/22 01:54:36;;;;;;;20.73;13.57;;;52.10;2022.40;;;;;;5092873;28;20066;-72
2021/03/22 01:57:21;;;;;;;20.80;13.43;;;52.10;2022.40;;;;;;5092859;28;20044;-72
2021/03/22 01:59:46;;;;;;;24.63;15.47;;;52.10;2022.40;;;;;;5074273;28;20472;-68
2021/03/22 02:02:12;;;;;;;29.43;15.17;;;52.10;2022.40;;;;;;5091756;28;20058;-68
2021/03/22 02:04:38;;;;;;;28.23;15.10;;;52.10;2022.40;;;;;;5093540;28;20107;-63
2021/03/22 02:07:04;;;;;;;22.07;14.63;;;76.80;2022.40;;;;;;5094187;28;20418;-64
2021/03/22 02:09:30;;;;;;;21.77;14.03;;;52.10;2022.40;;;;;;5094003;28;20031;-64
2021/03/22 02:11:56;;;;;;;26.10;15.53;;;76.80;2022.40;;;;;;5094283;28;20122;-63
2021/03/22 02:14:22;;;;;;;22.23;13.67;;;76.80;2022.40;;;;;;5094065;28;20019;-63
2021/03/22 02:17:32;;;;;;;22.57;15.33;;;76.80;2022.40;;;;;;5094310;28;20032;-64
2021/03/22 02:20:26;;;;;;;19.23;13.33;;;77.00;2022.40;;;;;;5072190;28;20046;-63
2021/03/22 02:23:10;;;;;;;22.05;14.65;;;77.00;2022.40;;;;;;5093795;28;20031;-69
2021/03/22 02:26:02;;;;;;;;;;;77.00;2022.40;;;;;;5094212;28;20034;-63
2021/03/22 02:28:53;;;;;;;45.10;19.57;;;77.00;2022.40;;;;;;5088680;28;19923;-63
2021/03/22 02:31:31;;;;;;;50.20;23.37;;;77.00;2022.40;;;;;;5093896;28;20434;-63
2021/03/22 02:34:05;;;;;;;35.40;21.23;;;77.00;2022.40;;;;;;5093459;28;20023;-70
2021/03/22 02:36:43;;;;;;;43.43;25.00;;;77.00;2022.40;;;;;;5093873;28;20024;-63
2021/03/22 02:39:09;;;;;;;33.80;20.57;;;77.00;1996.80;;;;;;5093627;28;20055;-66
2021/03/22 02:41:58;;;;;;;23.73;16.40;;;77.10;1996.80;;;;;;5093882;28;20056;-69
2021/03/22 02:44:33;;;;;;;27.67;16.10;;;77.10;1996.80;;;;;;5093564;28;20024;-63
2021/03/22 02:47:02;;;;;;;29.30;18.17;;;77.10;1971.20;;;;;;5093549;28;20060;-63
2021/03/22 02:49:36;;;;;;;28.00;17.23;;;77.00;1996.80;;;;;;5093500;28;20399;-63
2021/03/22 02:52:10;;;;;;;30.50;19.17;;;77.00;1996.80;;;;;;5093641;28;20082;-63
2021/03/22 02:54:44;;;;;;;38.97;22.45;;;77.00;1996.80;;;;;;5093835;28;20449;-63
2021/03/22 02:57:41;;;;;;;35.67;22.33;;;77.00;2022.40;;;;;;5093333;28;20028;-68
2021/03/22 03:00:22;;;;;;;35.83;22.00;;;76.90;2022.40;;;;;;5093671;28;20102;-67
2021/03/22 03:02:48;;;;;;;35.70;19.70;;;76.90;2022.40;;;;;;5093306;28;20025;-66
2021/03/22 03:05:24;;;;;;;31.70;19.07;;;76.90;2022.40;;;;;;5075314;28;20017;-64
2021/03/22 03:07:49;;;;;;;31.57;19.03;;;77.00;2048.00;;;;;;5093301;28;20069;-64
2021/03/22 03:10:18;;;;;;;30.50;19.20;;;77.00;2048.00;;;;;;5093548;28;20020;-64
2021/03/22 03:12:45;;;;;;;31.90;21.40;;;77.00;2022.40;;;;;;5093358;28;20040;-67
2021/03/22 03:15:13;;;;;;;34.67;19.57;;;77.00;2022.40;;;;;;5093276;28;20496;-64
2021/03/22 03:17:39;;;;;;;31.73;19.03;;;77.00;2022.40;;;;;;5075204;28;20020;-65
2021/03/22 03:20:10;;;;;;;34.87;19.10;;;77.00;2022.40;;;;;;5094280;28;20024;-68
2021/03/22 03:22:37;;;;;;;25.23;16.87;;;77.10;2022.40;;;;;;5093222;28;20111;-69
2021/03/22 03:25:05;;;;;;;23.13;16.10;;;77.10;2022.40;;;;;;5093136;28;20110;-69
2021/03/22 03:27:31;;;;;;;24.63;15.53;;;77.10;2022.40;;;;;;5092988;28;20431;-63
2021/03/22 03:29:57;;;;;;;23.77;16.10;;;77.20;2022.40;;;;;;5093369;28;20109;-64
2021/03/22 03:32:23;;;;;;;29.03;16.10;;;77.10;2048.00;;;;;;5093079;28;20032;-63
2021/03/22 03:34:49;;;;;;;26.53;16.57;;;77.10;2048.00;;;;;;5093089;28;20020;-68
2021/03/22 03:37:15;;;;;;;26.10;15.03;;;77.20;2048.00;;;;;;5093030;28;20031;-63
2021/03/22 03:39:41;;;;;;;23.33;15.07;;;77.20;2048.00;;;;;;5093318;28;20021;-63
2021/03/22 03:42:09;;;;;;;23.23;17.03;;;77.20;2048.00;;;;;;5093014;28;20081;-66
2021/03/22 03:44:39;;;;;;;24.23;16.47;;;77.20;2048.00;;;;;;5092976;28;20016;-63
2021/03/22 03:47:05;;;;;;;24.43;16.93;;;77.20;2048.00;;;;;;5095438;28;20039;-63
2021/03/22 03:49:32;;;;;;;22.97;16.63;;;77.20;2048.00;;;;;;5096743;28;20102;-69
2021/03/22 03:51:58;;;;;;;25.00;17.23;;;77.30;2048.00;;;;;;5096575;28;20040;-63
2021/03/22 03:54:24;;;;;;;24.00;17.63;;;77.30;2048.00;;;;;;5096683;28;20016;-63
2021/03/22 03:56:50;;;;;;;27.53;16.70;;;77.30;2048.00;;;;;;5096577;28;20069;-69
2021/03/22 03:59:16;;;;;;;28.77;16.33;;;77.40;2048.00;;;;;;5096428;28;20024;-63
2021/03/22 04:01:42;;;;;;;23.53;15.20;;;77.40;2048.00;;;;;;5097001;28;20028;-69
2021/03/22 04:04:08;;;;;;;23.17;14.87;;;77.40;2048.00;;;;;;5096388;28;20025;-63
2021/03/22 04:06:35;;;;;;;21.47;13.33;;;77.40;2048.00;;;;;;5096679;28;20035;-63
2021/03/22 04:09:05;;;;;;;21.90;14.83;;;77.40;2048.00;;;;;;5096554;28;20081;-68
2021/03/22 04:11:34;;;;;;;20.97;14.50;;;77.40;2073.60;;;;;;5096272;28;20082;-63
2021/03/22 04:14:01;;;;;;;23.70;14.90;;;77.40;2073.60;;;;;;5096274;28;20016;-63
2021/03/22 04:16:29;;;;;;;20.43;14.33;;;77.50;2073.60;;;;;;5096445;28;20063;-63
2021/03/22 04:18:55;;;;;;;18.83;13.07;;;77.50;2073.60;;;;;;5096166;28;20024;-67
2021/03/22 04:21:25;;;;;;;19.93;13.97;;;77.50;2073.60;;;;;;5096166;28;20496;-64
2021/03/22 04:23:52;;;;;;;20.07;14.13;;;77.50;2073.60;;;;;;5096095;28;20476;-63
2021/03/22 04:26:19;;;;;;;20.80;14.20;;;77.60;2073.60;;;;;;5095957;28;20127;-63
2021/03/22 04:28:45;;;;;;;19.97;13.47;;;77.60;2048.00;;;;;;5096317;28;20025;-69
2021/03/22 04:31:14;;;;;;;25.87;15.63;;;77.60;2048.00;;;;;;5077772;28;20361;-64
2021/03/22 04:33:41;;;;;;;22.80;16.07;;;77.60;2073.60;;;;;;5095819;28;20060;-63
2021/03/22 04:36:07;;;;;;;23.60;16.40;;;77.60;2048.00;;;;;;5095769;28;20031;-69
2021/03/22 04:38:33;;;;;;;22.50;16.03;;;77.70;2048.00;;;;;;5095979;28;20024;-69
2021/03/22 04:40:59;;;;;;;25.77;17.13;;;77.70;2048.00;;;;;;5095917;28;20039;-68
2021/03/22 04:43:25;;;;;;;23.97;16.37;;;77.70;2048.00;;;;;;5095538;28;20473;-63
2021/03/22 04:45:51;;;;;;;23.97;15.50;;;77.70;2073.60;;;;;;5095498;28;20128;-69
2021/03/22 04:48:17;;;;;;;25.27;17.10;;;77.70;2073.60;;;;;;5095373;28;20114;-68
2021/03/22 04:50:43;;;;;;;22.53;16.63;;;77.70;2073.60;;;;;;5095415;28;20074;-68
2021/03/22 04:53:10;;;;;;;25.43;17.33;;;77.70;2073.60;;;;;;5095407;28;20024;-64
2021/03/22 04:55:36;;;;;;;24.03;16.80;;;102.40;2073.60;;;;;;5095010;28;20016;-69
2021/03/22 04:58:02;;;;;;;24.57;16.60;;;77.70;2099.20;;;;;;5094948;28;20103;-63
2021/03/22 05:00:38;;;;;;;23.60;16.40;;;77.70;2099.20;;;;;;5095581;28;20099;-63
2021/03/22 05:03:05;;;;;;;26.47;18.40;;;77.70;2099.20;;;;;;5095641;28;20469;-68
2021/03/22 05:05:31;;;;;;;26.93;17.90;;;77.70;2099.20;;;;;;5095123;28;20024;-68
2021/03/22 05:07:57;;;;;;;28.80;19.73;;;77.70;2099.20;;;;;;5096261;28;20097;-66
2021/03/22 05:10:27;;;;;;;29.83;19.50;;;77.70;2099.20;;;;;;5095165;28;20373;-67
2021/03/22 05:12:52;;;;;;;33.87;21.07;;;77.70;2099.20;;;;;;5095070;28;20039;-68
2021/03/22 05:15:19;;;;;;;30.40;21.17;;;77.70;2124.80;;;;;;5095007;28;20020;-64
2021/03/22 05:17:45;;;;;;;30.50;20.30;;;77.70;2124.80;;;;;;5094899;28;20081;-67
2021/03/22 05:20:19;;;;;;;29.17;20.23;;;102.40;2124.80;;;;;;5094898;28;20017;-63
2021/03/22 05:22:45;;;;;;;29.70;18.97;;;102.40;2124.80;;;;;;5095682;28;20049;-67
2021/03/22 05:25:11;;;;;;;36.80;22.20;;;102.40;2124.80;;;;;;5094642;28;20032;-68
2021/03/22 05:27:37;;;;;;;35.63;22.00;;;102.40;2150.40;;;;;;5094748;28;20210;-67
2021/03/22 05:30:07;;;;;;;27.80;19.03;;;102.40;2150.40;;;;;;5094812;28;20035;-68
2021/03/22 05:32:34;;;;;;;27.50;17.97;;;102.40;2150.40;;;;;;5094534;28;20062;-67
2021/03/22 05:35:01;;;;;;;28.73;18.13;;;102.40;2150.40;;;;;;5094552;28;20020;-63
2021/03/22 05:37:28;;;;;;;30.40;19.00;;;102.40;2150.40;;;;;;5094769;28;20032;-67
2021/03/22 05:39:54;;;;;;;27.77;18.37;;;102.40;2150.40;;;;;;5094720;28;20039;-63
2021/03/22 05:42:45;;;;;;;27.07;18.70;;;102.40;2150.40;;;;;;5094668;28;20109;-63
2021/03/22 05:45:25;;;;;;;34.10;20.80;;;102.40;2150.40;;;;;;5094793;28;20044;-63
2021/03/22 05:48:25;;;;;;;30.93;19.30;;;102.40;2176.00;;;;;;5094439;28;20036;-64
2021/03/22 05:51:04;;;;;;;29.10;19.37;;;102.40;2176.00;;;;;;5061446;28;20083;-67
2021/03/22 05:53:59;;;;;;;31.13;20.97;;;102.40;2176.00;;;;;;5094477;28;20115;-63
2021/03/22 05:56:37;;;;;;;33.00;22.13;;;102.50;2176.00;;;;;;5094576;28;20016;-63
2021/03/22 05:59:40;;;;;;;33.77;23.53;;;102.40;2201.60;;;;;;5094279;28;20060;-63
2021/03/22 06:02:15;;;;;;;33.27;21.60;;;102.40;2201.60;;;;;;5094061;28;20028;-65
2021/03/22 06:05:25;;;;;;;41.07;27.03;;;102.40;2201.60;;;;;;5094180;28;20016;-69
2021/03/22 06:07:55;;;;;;;36.27;26.00;;;102.50;2201.60;;;;;;5088321;28;20181;-69
2021/03/22 06:10:23;;;;;;;37.47;28.03;;;102.50;2201.60;;;;;;5093272;28;20539;-68
2021/03/22 06:12:54;;;;;;;42.27;32.37;;;102.60;2201.60;;;;;;5094459;28;20097;-70
2021/03/22 06:15:42;;;;;;;43.83;33.90;;;102.60;2201.60;;;;;;5093989;28;20031;-67
2021/03/22 06:18:34;;;;;;;45.33;34.47;;;102.70;2201.60;;;;;;5093233;28;20027;-66
2021/03/22 06:21:14;;;;;;;45.57;33.87;;;102.70;2201.60;;;;;;5093147;28;20031;-67
2021/03/22 06:23:43;;;;;;;48.00;37.57;;;102.80;2201.60;;;;;;5083855;28;20027;-67
2021/03/22 06:26:42;;;;;;;50.70;39.77;;;102.90;2201.60;;;;;;5092033;28;20056;-67
2021/03/22 06:29:13;;;;;;;52.17;40.73;;;102.90;2201.60;;;;;;5092103;28;20557;-67
2021/03/22 06:31:41;;;;;;;59.43;41.97;;;103.00;2201.60;;;;;;5092161;28;20040;-66
2021/03/22 06:34:10;;;;;;;56.33;38.13;;;103.00;2201.60;;;;;;5092583;28;20100;-67
2021/03/22 06:36:36;;;;;;;45.60;32.87;;;103.00;2201.60;;;;;;5092107;28;20124;-66
2021/03/22 06:39:05;;;;;;;49.07;32.33;;;103.00;2201.60;;;;;;5092492;28;20024;-67
2021/03/22 06:41:49;;;;;;;50.43;35.43;;;103.10;2201.60;;;;;;5091823;28;20465;-66
2021/03/22 06:44:17;;;;;;;45.10;32.30;;;103.10;2201.60;;;;;;5092639;28;20074;-66
2021/03/22 06:46:54;;;;;;;46.47;32.83;;;103.20;2201.60;;;;;;5091890;28;20078;-67
2021/03/22 06:49:30;;;;;;;45.47;29.63;;;103.20;2201.60;;;;;;5092470;28;20031;-67
2021/03/22 06:51:59;;;;;;;47.27;31.23;;;103.20;2176.00;;;;;;5091746;28;20036;-67
2021/03/22 06:54:52;;;;;;;50.20;30.80;;;103.20;2176.00;;;;;;5092205;28;20074;-67
2021/03/22 06:57:23;;;;;;;52.33;32.83;;;103.20;2201.60;;;;;;5091970;28;20028;-66
2021/03/22 07:00:13;;;;;;;53.87;34.67;;;103.20;2176.00;;;;;;5092331;28;20020;-67
2021/03/22 07:03:02;;;;;;;56.43;33.63;;;103.30;2201.60;;;;;;5091674;28;20503;-68
2021/03/22 07:05:40;;;;;;;61.20;36.50;;;103.20;2201.60;;;;;;5092461;28;20107;-66
2021/03/22 07:08:13;;;;;;;65.40;38.67;;;103.30;2201.60;;;;;;5073704;28;20036;-66
2021/03/22 07:10:40;;;;;;;61.93;35.73;;;128.00;2227.20;;;;;;5092155;28;20024;-68
2021/03/22 07:13:22;;;;;;;66.70;37.73;;;128.00;2201.60;;;;;;5091811;28;20082;-67
2021/03/22 07:15:56;;;;;;;79.17;44.43;;;128.00;2227.20;;;;;;5092066;28;20111;-67
2021/03/22 07:18:27;;;;;;;65.13;40.70;;;128.00;2201.60;;;;;;5092128;28;20121;-67
2021/03/22 07:21:28;;;;;;;54.97;36.87;;;128.10;2201.60;;;;;;5094093;28;20035;-66
2021/03/22 07:24:07;;;;;;;49.40;33.57;;;128.10;2201.60;;;;;;4994019;28;20540;-67
2021/03/22 07:27:11;;;;;;;57.27;36.87;;;128.10;2201.60;;;;;;4993957;28;20479;-67
2021/03/22 07:30:02;;;;;;;52.17;35.37;;;128.20;2201.60;;;;;;4994129;28;20037;-67
2021/03/22 07:32:48;;;;;;;47.53;33.17;;;128.20;2201.60;;;;;;4993924;28;20046;-67
2021/03/22 07:35:51;;;;;;;46.83;33.03;;;128.20;2201.60;;;;;;4993923;28;20026;-66
2021/03/22 07:38:36;;;;;;;56.30;36.73;;;128.20;2201.60;;;;;;4994093;28;20033;-66
2021/03/22 07:41:45;;;;;;;41.43;29.70;;;128.20;2201.60;;;;;;4993658;28;20042;-67
2021/03/22 07:44:27;;;;;;;48.00;34.77;;;128.30;2201.60;;;;;;4985491;28;20034;-67
2021/03/22 07:47:04;;;;;;;51.10;34.90;;;128.30;2201.60;;;;;;4993346;28;20034;-68
2021/03/22 07:49:39;;;;;;;44.03;31.50;;;128.30;2201.60;;;;;;4993987;28;20054;-67
2021/03/22 07:52:22;;;;;;;39.57;27.20;;;128.30;2201.60;;;;;;4993167;28;20053;-67
2021/03/22 07:54:54;;;;;;;44.60;25.75;;;128.30;2201.60;;;;;;4993881;28;20038;-67
2021/03/22 07:57:40;;;;;;;35.80;25.37;;;128.40;2201.60;;;;;;4993545;28;20109;-67
2021/03/22 08:00:06;;;;;;;34.20;23.13;;;128.50;2176.00;;;;;;5068165;28;20139;-67
2021/03/22 08:02:54;;;;;;;39.27;26.93;;;128.50;2176.00;;;;;;5095040;28;20112;-67
2021/03/22 08:06:01;;;;;;;33.43;24.10;;;128.50;2201.60;;;;;;5095348;28;20052;-66
2021/03/22 08:08:34;;;;;;;32.67;23.43;;;128.40;2227.20;;;;;;5094934;28;20106;-67
2021/03/22 08:11:41;;;;;;;59.78;33.15;;;128.40;2201.60;;;;;;5095275;28;20507;-67
2021/03/22 08:14:22;;;;;;;33.37;24.17;;;128.40;2201.60;;;;;;5094794;28;20028;-67
2021/03/22 08:17:18;;;;;;;54.43;32.23;;;128.40;2201.60;;;;;;5095723;28;20069;-67
2021/03/22 08:19:54;;;;;;;114.03;65.17;;;128.40;2227.20;;;;;;5095101;28;20078;-67
2021/03/22 08:22:30;;;;;;;42.07;26.83;;;128.50;2227.20;;;;;;5091928;28;20013;-68
2021/03/22 08:25:17;;;;;;;34.90;23.83;;;128.40;2227.20;;;;;;5082556;28;20051;-67
2021/03/22 08:28:24;;;;;;;43.50;32.03;;;128.50;2227.20;;;;;;5083058;28;20094;-67
2021/03/22 08:31:16;;;;;;;91.83;82.03;;;128.60;2227.20;;;;;;5074395;28;20021;-67
2021/03/22 08:33:53;;;;;;;47.20;36.27;;;128.60;2227.20;;;;;;5087033;28;20091;-67
2021/03/22 08:36:37;;;;;;;55.77;46.30;;;128.60;2227.20;;;;;;5094683;28;20496;-67
2021/03/22 08:39:15;;;;;;;43.53;27.17;;;128.60;2252.80;;;;;;5077881;28;20016;-68
2021/03/22 08:42:07;;;;;;;45.47;37.47;;;128.50;2252.80;;;;;;5075746;28;20023;-68
2021/03/22 08:44:44;;;;;;;61.67;36.90;;;128.50;2252.80;;;;;;5071034;28;20032;-67
2021/03/22 08:47:19;;;;;;;168.50;82.83;;;128.50;2252.80;;;;;;5056929;28;20028;-68
2021/03/22 08:49:50;;;;;;;88.23;48.60;;;128.60;2252.80;;;;;;5095344;28;20058;-67
2021/03/22 08:52:21;;;;;;;64.23;37.70;;;128.50;2252.80;;;;;;5084856;28;20086;-68
2021/03/22 08:54:47;;;;;;;55.57;32.70;;;128.50;2252.80;;;;;;5073957;28;20052;-68
2021/03/22 08:57:26;;;;;;;41.43;29.33;;;128.50;2252.80;;;;;;5074264;28;20075;-67
2021/03/22 09:00:26;;;;;;;45.87;29.53;;;128.50;2252.80;;;;;;5083422;28;20034;-67
2021/03/22 09:02:59;;;;;;;50.17;34.03;;;128.40;2252.80;;;;;;5074620;28;20028;-68
2021/03/22 09:05:28;;;;;;;43.60;30.93;;;128.50;2252.80;;;;;;5100855;28;20020;-68
2021/03/22 09:08:19;;;;;;;44.47;30.77;;;128.50;2252.80;;;;;;5102163;28;20032;-65
2021/03/22 09:10:46;;;;;;;39.70;26.80;;;128.50;2252.80;;;;;;5099341;28;20019;-67
2021/03/22 09:13:25;;;;;;;39.33;28.37;;;128.50;2252.80;;;;;;5098167;28;20020;-67
2021/03/22 09:16:23;;;;;;;37.20;26.00;;;128.60;2252.80;;;;;;5075630;28;20380;-67
2021/03/22 09:19:11;;;;;;;63.10;38.43;;;128.70;2252.80;;;;;;5087668;28;20036;-68
2021/03/22 09:21:42;;;;;;;92.67;49.23;;;128.60;2252.80;;;;;;5093841;28;20400;-66
2021/03/22 09:24:39;;;;;;;89.70;52.57;;;128.60;2252.80;;;;;;5100390;28;20031;-67
2021/03/22 09:27:15;;;;;;;156.70;75.37;;;128.60;2252.80;;;;;;5105288;28;20123;-67
2021/03/22 09:29:50;;;;;;;195.87;85.97;;;128.60;2227.20;;;;;;5087911;28;20032;-67
2021/03/22 09:32:25;;;;;;;95.88;49.33;;;128.60;2252.80;;;;;;5093259;28;20526;-66
2021/03/22 09:34:56;;;;;;;77.50;37.85;;;128.60;2252.80;;;;;;5094028;28;20058;-67
2021/03/22 09:38:00;;;;;;;259.93;98.03;;;128.70;2227.20;;;;;;5085389;28;20016;-67
2021/03/22 09:40:26;;;;;;;114.18;49.05;;;128.80;2227.20;;;;;;5103678;28;20052;-67
2021/03/22 09:43:11;;;;;;;218.27;83.10;;;128.80;2227.20;;;;;;5095298;28;20038;-67
2021/03/22 09:45:51;;;;;;;38.63;25.40;;;128.90;2252.80;;;;;;5073428;28;20027;-67
2021/03/22 09:48:18;;;;;;;34.27;23.63;;;128.90;2201.60;;;;;;5075225;28;20385;-67
2021/03/22 09:50:46;;;;;;;34.27;24.03;;;128.90;2201.60;;;;;;5096455;28;20024;-67
2021/03/22 09:53:21;;;;;;;28.80;22.77;;;128.90;2201.60;;;;;;5106489;28;20032;-66
2021/03/22 09:55:52;;;;;;;44.83;29.27;;;153.60;2201.60;;;;;;5102104;28;20357;-71
2021/03/22 09:58:25;;;;;;;50.00;34.53;;;153.60;2176.00;;;;;;5097920;28;20520;-66
2021/03/22 10:01:04;;;;;;;52.55;34.58;;;153.60;2176.00;;;;;;5083907;28;20028;-69
2021/03/22 10:03:56;;;;;;;58.80;37.37;;;153.60;2176.00;;;;;;5077601;28;20032;-69
2021/03/22 10:06:50;;;;;;;47.27;32.63;;;128.90;2201.60;;;;;;5052718;28;20507;-70
2021/03/22 10:09:25;;;;;;;47.10;32.70;;;128.90;2176.00;;;;;;5089107;28;20466;-64
2021/03/22 10:11:52;;;;;;;45.07;30.53;;;128.90;2201.60;;;;;;5077044;28;20048;-74
2021/03/22 10:14:27;;;;;;;31.42;25.75;;;128.90;2201.60;;;;;;5100331;28;20077;-69
2021/03/22 10:16:53;;;;;;;37.33;29.33;;;128.90;2201.60;;;;;;5114111;28;20035;-69
2021/03/22 10:19:28;;;;;;;37.07;28.33;;;128.90;2201.60;;;;;;5110991;28;20024;-71
2021/03/22 10:21:59;;;;;;;50.00;35.27;;;128.80;2227.20;;;;;;5073262;28;20465;-73
2021/03/22 10:24:37;;;;;;;45.63;33.40;;;128.70;2252.80;;;;;;5071378;28;20035;-64
2021/03/22 10:27:23;;;;;;;38.40;29.07;;;128.60;2252.80;;;;;;5086020;28;20135;-67
2021/03/22 10:29:49;;;;;;;41.00;30.50;;;128.60;2252.80;;;;;;5086503;28;20023;-71
2021/03/22 10:32:17;;;;;;;45.43;31.77;;;128.50;2252.80;;;;;;5081784;28;20033;-68
2021/03/22 10:34:54;;;;;;;28.10;22.57;;;128.40;2227.20;;;;;;5100786;28;20058;-76
2021/03/22 10:37:25;;;;;;;28.27;22.27;;;128.50;2227.20;;;;;;5089711;28;20544;-75
2021/03/22 10:39:57;;;;;;;32.17;24.47;;;128.50;2227.20;;;;;;5094240;28;20060;-69
2021/03/22 10:42:26;;;;;;;28.33;22.30;;;128.60;2176.00;;;;;;5092892;28;20046;-64
2021/03/22 10:44:53;;;;;;;29.30;22.00;;;128.60;2150.40;;;;;;5092828;28;20028;-68
2021/03/22 10:47:21;;;;;;;30.73;21.30;;;128.70;2124.80;;;;;;5092861;28;20031;-69
2021/03/22 10:49:51;;;;;;;48.00;32.53;;;128.70;2099.20;;;;;;5102831;28;20026;-69
2021/03/22 10:52:22;;;;;;;36.43;25.10;;;128.60;2073.60;;;;;;5103114;28;20353;-69
2021/03/22 10:54:49;;;;;;;35.43;24.83;;;128.80;2099.20;;;;;;5093359;28;20016;-66
2021/03/22 10:57:28;;;;;;;35.97;24.63;;;128.90;2099.20;;;;;;5102041;28;20012;-76
2021/03/22 10:59:58;;;;;;;47.10;27.80;;;128.90;2073.60;;;;;;5084837;28;20028;-65
2021/03/22 11:02:39;;;;;;;29.30;21.60;;;153.60;2150.40;;;;;;5092903;28;20028;-69
2021/03/22 11:05:11;;;;;;;25.43;18.80;;;153.70;2099.20;;;;;;5090350;28;20035;-69
2021/03/22 11:07:37;;;;;;;30.27;19.67;;;153.70;2099.20;;;;;;5078712;28;20020;-75
2021/03/22 11:10:12;;;;;;;24.73;20.27;;;153.60;2099.20;;;;;;5089749;28;20030;-69
2021/03/22 11:12:42;;;;;;;39.37;29.57;;;153.60;2099.20;;;;;;5088588;28;20036;-69
2021/03/22 11:15:13;;;;;;;26.10;20.47;;;153.60;2099.20;;;;;;5099582;28;20035;-66
2021/03/22 11:17:41;;;;;;;50.05;31.30;;;153.60;2073.60;;;;;;5084700;28;20028;-68
2021/03/22 11:20:09;;;;;;;31.53;25.03;;;128.90;2124.80;;;;;;5065091;28;20016;-69
2021/03/22 11:22:38;;;;;;;33.27;22.97;;;153.60;2150.40;;;;;;5081114;28;20028;-68
2021/03/22 11:25:31;;;;;;;29.73;22.43;;;153.60;2150.40;;;;;;5060340;28;20488;-63
2021/03/22 11:28:15;;;;;;;38.43;25.67;;;153.60;2124.80;;;;;;5064129;28;20128;-69
2021/03/22 11:30:49;;;;;;;31.45;22.25;;;128.80;2176.00;;;;;;5072461;28;20024;-68
2021/03/22 11:33:27;;;;;;;31.33;21.80;;;128.80;2150.40;;;;;;5079628;28;20024;-69
2021/03/22 11:36:16;;;;;;;26.07;20.50;;;128.70;2176.00;;;;;;5084799;28;20025;-68
2021/03/22 11:39:29;;;;;;;45.23;27.80;;;128.70;2176.00;;;;;;5091692;28;20016;-66
2021/03/22 11:41:55;;;;;;;28.03;21.80;;;128.70;2201.60;;;;;;5084471;28;20032;-66
2021/03/22 11:44:32;;;;;;;26.93;20.53;;;128.70;2176.00;;;;;;5087572;28;20028;-67
2021/03/22 11:47:23;;;;;;;27.97;19.67;;;128.70;2176.00;;;;;;5096086;28;20028;-69
2021/03/22 11:49:50;;;;;;;26.17;20.10;;;128.80;2150.40;;;;;;5087087;28;20111;-64
2021/03/22 11:52:22;;;;;;;30.97;22.17;;;128.80;2150.40;;;;;;5090959;28;20020;-69
2021/03/22 11:54:59;;;;;;;25.53;20.27;;;128.80;2124.80;;;;;;5092304;28;20028;-67
2021/03/22 11:57:33;;;;;;;26.43;18.67;;;128.90;2124.80;;;;;;5091204;28;20095;-67
2021/03/22 12:00:03;;;;;;;25.63;19.60;;;128.90;2124.80;;;;;;5091258;28;20388;-69
2021/03/22 12:02:47;;;;;;;29.55;21.25;;;153.60;2099.20;;;;;;5092307;28;20133;-67
2021/03/22 12:05:33;;;;;;;26.40;20.88;;;153.60;2124.80;;;;;;5090484;28;20024;-68
2021/03/22 12:07:59;;;;;;;28.27;21.67;;;153.70;2124.80;;;;;;5089793;28;20039;-69
2021/03/22 12:10:31;;;;;;;26.60;19.83;;;153.80;2099.20;;;;;;5102163;28;20016;-68
2021/03/22 12:12:58;;;;;;;24.17;19.13;;;153.90;2073.60;;;;;;5095699;28;20089;-68
2021/03/22 12:15:26;;;;;;;27.30;19.60;;;153.90;2073.60;;;;;;5076950;28;20504;-68
2021/03/22 12:17:58;;;;;;;24.40;18.98;;;153.90;2073.60;;;;;;5105030;28;20028;-69
2021/03/22 12:20:30;;;;;;;22.63;18.40;;;153.90;2073.60;;;;;;5100805;28;20023;-68
2021/03/22 12:22:57;;;;;;;26.80;18.50;;;153.90;2048.00;;;;;;5077087;28;20020;-68
2021/03/22 12:25:32;;;;;;;24.37;18.83;;;153.80;2022.40;;;;;;5105609;28;20375;-68
2021/03/22 12:27:58;;;;;;;25.80;19.03;;;153.80;2048.00;;;;;;5093532;28;20052;-67
2021/03/22 12:30:26;;;;;;;24.70;18.17;;;153.90;2022.40;;;;;;5105287;28;20035;-69
2021/03/22 12:32:53;;;;;;;27.93;18.30;;;153.90;2022.40;;;;;;5094777;28;20040;-69
2021/03/22 12:35:25;;;;;;;25.52;18.45;;;153.90;2022.40;;;;;;5099266;28;20545;-65
2021/03/22 12:37:51;;;;;;;23.13;17.03;;;153.90;1996.80;;;;;;5108623;28;20063;-68